Stinson Municipal Airport
KSSF : now visible

Airfield :











YOU CAN JOIN US ON...

 
LOGIN :

Register | Disclaimer

   EN    FR    IT 

 









Legend :    VFR   Marginal VFR   IFR   Intensive IFR   Very Intensive IFR
Visi :
Ceiling :
>= 8 km
>= 3000ft
5 to 8 km
1000 to 3000 ft
1500m to 5 km
500 to 1000 ft
800 to 1500m
200 to 500 ft
< 800m
< 200 ft
Symbols :   Thunderstorms  Fog  Heavy snow  Heavy precipitations  Wind > 20 kt






- Airport Elevation : 577 ft


KSSF - Stinson Municipal

CURRENT METAR :
  • 240934Z AUTO 13004KT 10SM BKN009 OVC017 18/17 A2996 RMK AO2 T01780167 $

EXPIRED METARs :
  • 240904Z AUTO 13009KT 10SM OVC011 18/17 A2996 RMK AO2 T01780167 $
  • 240853Z AUTO 14006KT 10SM OVC009 18/17 A2997 RMK AO2 SLP141 T01780167 56009 $
  • 240815Z AUTO 14007KT 10SM OVC010 18/17 A2997 RMK AO2 CIG 008V015 T01780167 $
  • 240753Z AUTO 13007KT 10SM OVC008 18/17 A2998 RMK AO2 SLP147 T01780167 $
  • 240653Z AUTO 13011KT 10SM OVC009 18/17 A2999 RMK AO2 SLP150 T01780167 $

TAF KSSF
Valid from the 24 at 08:00 until the 25 at 06:00 UTC


240816Z 2408/2506 14006KT P6SM VCSH OVC006
FM241600 18012G22KT P6SM OVC015
FM242000 18014KT P6SM BKN035
FM250000 16008KT P6SM BKN050
KZHU FIR / North America



MET'MAP, your aeronautical weather chart ! - Copyright ORBIFLY December 2007 - Disclaimer

ORBIFLY MET'MAP TEAM :

Programming & Development : Alexandra Zaïnal
Concept & original design : Baudouin d'Aumeries
Assistance for programming : Marc-Olivier Méhu
Technical & hardware support : Manuel Goepfert

Contact : metmap@orbifly.com




SOURCES & CREDITS :

   NOAA       Earth
Advisory